Terminal Aerodrome Forecast
Issued by NWS Wakefield, VA

Home | Current Version | Previous Version | Text Only | Print | Product List | Glossary On
Versions: 1 2 3 4 5 6 7 8 9 10 11 12 13 14 15
000
FTUS41 KAKQ 261100
TAFECG
TAF
KECG 261132Z 2612/2712 VRB03KT P6SM SCT020 BKN040
     FM261500 17008KT P6SM SCT040 SCT250
     FM261900 14008KT P6SM BKN060
     FM270400 20006KT P6SM BKN250=

USA.gov is the U.S. government's official web portal to all federal, state and local government web resources and services.